createdAt,value
2022-10-11T00:01:45.042Z,18.63
2022-10-11T00:04:11.940Z,18.50
2022-10-11T00:06:38.753Z,21.20
2022-10-11T00:09:05.914Z,23.13
2022-10-11T00:11:32.904Z,23.97
2022-10-11T00:13:59.495Z,24.40
2022-10-11T00:16:26.114Z,18.60
2022-10-11T00:18:52.707Z,28.60
2022-10-11T00:21:20.950Z,21.33
2022-10-11T00:23:48.505Z,23.00
2022-10-11T00:26:15.825Z,25.30
2022-10-11T00:28:43.039Z,26.77
2022-10-11T00:31:13.476Z,26.20
2022-10-11T00:33:40.422Z,23.43
2022-10-11T00:36:08.810Z,22.07
2022-10-11T00:38:35.995Z,21.73
2022-10-11T00:41:02.908Z,19.60
2022-10-11T00:43:31.213Z,21.17
2022-10-11T00:45:57.743Z,20.67
2022-10-11T00:48:33.259Z,18.37
2022-10-11T00:51:02.471Z,23.53
2022-10-11T00:53:32.570Z,21.43
2022-10-11T00:56:06.257Z,22.70
2022-10-11T00:58:36.241Z,19.53
2022-10-11T01:01:03.671Z,21.90
2022-10-11T01:03:32.445Z,17.20
2022-10-11T01:05:59.096Z,20.07
2022-10-11T01:08:26.886Z,28.13
2022-10-11T01:10:53.666Z,21.43
2022-10-11T01:13:36.640Z,26.27
2022-10-11T01:16:29.947Z,26.93
2022-10-11T01:19:48.607Z,21.73
2022-10-11T01:22:36.434Z,32.53
2022-10-11T01:25:18.417Z,35.13
2022-10-11T01:28:04.364Z,25.67
2022-10-11T01:30:33.799Z,27.97
2022-10-11T01:33:17.807Z,32.13
2022-10-11T01:35:44.785Z,34.30
2022-10-11T01:38:42.023Z,30.57
2022-10-11T01:41:13.163Z,31.70
2022-10-11T01:43:42.266Z,30.23
2022-10-11T01:46:12.224Z,35.73
2022-10-11T01:48:56.831Z,41.85
2022-10-11T01:51:29.648Z,45.57
2022-10-11T01:54:22.035Z,47.17
2022-10-11T01:57:27.501Z,48.37
2022-10-11T02:00:06.246Z,43.60
2022-10-11T02:02:33.256Z,42.33
2022-10-11T02:05:13.223Z,41.37
2022-10-11T02:07:43.272Z,53.20
2022-10-11T02:10:19.894Z,53.87
2022-10-11T02:12:54.859Z,50.30
2022-10-11T02:15:23.477Z,43.57
2022-10-11T02:17:52.163Z,53.63
2022-10-11T02:20:21.852Z,55.73
2022-10-11T02:22:52.304Z,47.53
2022-10-11T02:25:26.764Z,40.90
2022-10-11T02:27:57.910Z,48.27
2022-10-11T02:30:24.733Z,56.47
2022-10-11T02:32:52.688Z,71.20
2022-10-11T02:35:20.701Z,43.70
2022-10-11T02:38:10.396Z,62.90
2022-10-11T02:40:41.409Z,53.60
2022-10-11T02:43:19.354Z,75.37
2022-10-11T02:45:54.000Z,60.77
2022-10-11T02:48:20.884Z,73.17
2022-10-11T02:50:47.537Z,69.27
2022-10-11T02:53:14.092Z,85.93
2022-10-11T02:55:40.760Z,77.47
2022-10-11T02:58:07.382Z,76.80
2022-10-11T03:00:34.376Z,81.60
2022-10-11T03:03:01.391Z,64.50
2022-10-11T03:05:28.368Z,57.97
2022-10-11T03:07:55.341Z,70.10
2022-10-11T03:10:22.296Z,63.93
2022-10-11T03:12:49.278Z,63.67
2022-10-11T03:15:16.230Z,79.10
2022-10-11T03:17:43.198Z,56.40
2022-10-11T03:20:10.351Z,74.13
2022-10-11T03:22:37.331Z,64.53
2022-10-11T03:25:04.923Z,68.77
2022-10-11T03:27:32.694Z,71.87
2022-10-11T03:29:59.820Z,72.27
2022-10-11T03:32:26.846Z,64.70
2022-10-11T03:34:53.883Z,64.70
2022-10-11T03:37:20.877Z,58.47
2022-10-11T03:39:47.933Z,67.33
2022-10-11T03:42:15.254Z,65.73
2022-10-11T03:44:42.102Z,77.03
2022-10-11T03:47:09.229Z,60.53
2022-10-11T03:49:40.001Z,57.73
2022-10-11T03:52:10.430Z,59.83
2022-10-11T03:54:37.391Z,61.63
2022-10-11T03:57:04.678Z,67.03
2022-10-11T03:59:31.723Z,76.07
2022-10-11T04:01:58.796Z,70.17
2022-10-11T04:04:25.828Z,72.00
2022-10-11T04:06:53.451Z,67.60
2022-10-11T04:09:20.469Z,64.60
2022-10-11T04:11:47.467Z,68.63
2022-10-11T04:14:14.498Z,56.17
2022-10-11T04:16:41.882Z,63.20
2022-10-11T04:19:09.107Z,67.77
2022-10-11T04:21:36.090Z,56.53
2022-10-11T04:24:03.080Z,83.87
2022-10-11T04:26:30.099Z,57.20
2022-10-11T04:28:57.227Z,69.67
2022-10-11T04:31:24.298Z,58.83
2022-10-11T04:33:51.334Z,75.77
2022-10-11T04:36:18.359Z,68.63
2022-10-11T04:38:45.331Z,62.43
2022-10-11T04:41:13.609Z,74.03
2022-10-11T04:43:40.624Z,71.17
2022-10-11T04:46:08.329Z,64.07
2022-10-11T04:48:35.990Z,61.73
2022-10-11T04:51:02.962Z,74.70
2022-10-11T04:53:30.051Z,71.37
2022-10-11T04:56:08.042Z,66.93
2022-10-11T04:58:36.441Z,67.80
2022-10-11T05:01:04.236Z,56.93
2022-10-11T05:03:31.231Z,62.70
2022-10-11T05:06:00.978Z,57.87
2022-10-11T05:08:31.597Z,60.53
2022-10-11T05:11:03.979Z,52.80
2022-10-11T05:13:31.463Z,51.13
2022-10-11T05:15:58.824Z,56.57
2022-10-11T05:18:25.842Z,57.00
2022-10-11T05:21:09.892Z,51.63
2022-10-11T05:23:37.158Z,58.47
2022-10-11T05:26:04.991Z,51.80
2022-10-11T05:28:32.403Z,54.60
2022-10-11T05:30:59.442Z,64.33
2022-10-11T05:33:29.434Z,60.00
2022-10-11T05:35:56.439Z,56.37
2022-10-11T05:38:23.333Z,57.17
2022-10-11T05:40:50.264Z,64.63
2022-10-11T05:43:16.847Z,55.47
2022-10-11T05:45:44.569Z,49.13
2022-10-11T05:48:11.691Z,49.30
2022-10-11T05:50:39.131Z,53.13
2022-10-11T05:53:06.959Z,47.83
2022-10-11T05:55:44.090Z,52.23
2022-10-11T05:58:13.394Z,52.40
2022-10-11T06:00:40.564Z,50.87
2022-10-11T06:03:08.680Z,50.90
2022-10-11T06:05:35.803Z,52.63
2022-10-11T06:08:03.396Z,48.17
2022-10-11T06:10:29.970Z,44.70
2022-10-11T06:12:56.587Z,43.83
2022-10-11T06:15:23.183Z,45.23
2022-10-11T06:17:49.747Z,44.60
2022-10-11T06:20:16.421Z,46.13
2022-10-11T06:22:43.073Z,52.03
2022-10-11T06:25:09.933Z,53.87
2022-10-11T06:27:36.628Z,51.07
2022-10-11T06:30:04.058Z,43.33
2022-10-11T06:32:30.665Z,48.77
2022-10-11T06:34:57.249Z,51.37
2022-10-11T06:37:23.889Z,48.07
2022-10-11T06:39:50.539Z,48.00
2022-10-11T06:42:17.507Z,42.30
2022-10-11T06:44:44.095Z,43.60
2022-10-11T06:47:10.646Z,47.77
2022-10-11T06:49:37.189Z,42.53
2022-10-11T06:52:03.930Z,42.53
2022-10-11T06:54:30.451Z,46.58
2022-10-11T06:56:57.019Z,39.67
2022-10-11T06:59:23.568Z,36.07
2022-10-11T07:01:50.134Z,41.47
2022-10-11T07:04:16.729Z,38.03
2022-10-11T07:06:43.277Z,38.20
2022-10-11T07:09:09.924Z,39.13
2022-10-11T07:11:36.614Z,38.23
2022-10-11T07:14:07.516Z,41.47
2022-10-11T07:16:37.845Z,40.23
2022-10-11T07:19:06.302Z,32.60
2022-10-11T07:21:34.177Z,36.57
2022-10-11T07:24:01.932Z,37.40
2022-10-11T07:26:33.763Z,36.90
2022-10-11T07:29:04.375Z,42.40
2022-10-11T07:31:31.037Z,35.00
2022-10-11T07:33:57.631Z,36.07
2022-10-11T07:36:25.179Z,39.33
2022-10-11T07:38:51.765Z,37.70
2022-10-11T07:41:18.656Z,33.27
2022-10-11T07:43:47.686Z,28.70
2022-10-11T07:46:15.244Z,38.27
2022-10-11T07:48:41.861Z,31.70
2022-10-11T07:51:15.116Z,37.73
2022-10-11T07:53:49.927Z,31.43
2022-10-11T07:56:22.600Z,36.90
2022-10-11T07:58:54.355Z,35.00
2022-10-11T08:01:21.766Z,29.90
2022-10-11T08:03:49.675Z,35.07
2022-10-11T08:06:19.188Z,32.90
2022-10-11T08:08:45.720Z,33.03
2022-10-11T08:11:20.790Z,35.57
2022-10-11T08:13:47.327Z,31.60
2022-10-11T08:16:14.604Z,35.17
2022-10-11T08:18:41.239Z,35.60
2022-10-11T08:21:13.079Z,29.77
2022-10-11T08:23:40.039Z,30.23
2022-10-11T08:26:07.640Z,32.03
2022-10-11T08:28:34.920Z,27.77
2022-10-11T08:31:02.171Z,25.80
2022-10-11T08:33:28.796Z,25.40
2022-10-11T08:35:57.084Z,27.23
2022-10-11T08:38:24.024Z,31.07
2022-10-11T08:40:56.565Z,40.80
2022-10-11T08:43:56.367Z,27.02
2022-10-11T08:46:28.864Z,27.13
2022-10-11T08:48:56.083Z,27.87
2022-10-11T08:51:52.411Z,25.90
2022-10-11T08:54:38.607Z,29.67
2022-10-11T08:57:06.364Z,27.10
2022-10-11T08:59:48.953Z,32.30
2022-10-11T09:02:15.895Z,34.47
2022-10-11T09:04:42.932Z,26.43
2022-10-11T09:07:21.873Z,29.83
2022-10-11T09:09:51.966Z,28.60
2022-10-11T09:12:22.996Z,24.87
2022-10-11T09:15:09.734Z,26.67
2022-10-11T09:18:10.126Z,25.03
2022-10-11T09:21:08.430Z,23.73
2022-10-11T09:24:00.092Z,25.40
2022-10-11T09:26:31.341Z,23.60
2022-10-11T09:29:45.079Z,22.53
2022-10-11T09:32:15.820Z,24.10
2022-10-11T09:34:42.919Z,28.20
2022-10-11T09:37:26.597Z,28.50
2022-10-11T09:40:09.806Z,23.77
2022-10-11T09:42:36.435Z,23.10
2022-10-11T09:45:16.485Z,23.63
2022-10-11T09:47:43.087Z,27.67
2022-10-11T09:50:30.613Z,24.23
2022-10-11T09:53:00.055Z,23.23
2022-10-11T09:55:33.978Z,26.67
2022-10-11T09:58:01.340Z,21.47
2022-10-11T10:00:32.243Z,25.30
2022-10-11T10:03:01.712Z,23.50
2022-10-11T10:05:36.872Z,24.10
2022-10-11T10:08:23.007Z,20.40
2022-10-11T10:11:03.016Z,24.17
2022-10-11T10:13:53.364Z,19.70
2022-10-11T10:16:22.635Z,18.57
2022-10-11T10:19:17.743Z,22.23
2022-10-11T10:21:47.359Z,21.77
2022-10-11T10:24:37.592Z,17.23
2022-10-11T10:27:25.578Z,25.30
2022-10-11T10:30:13.323Z,20.40
2022-10-11T10:32:59.812Z,20.17
2022-10-11T10:35:42.879Z,21.43
2022-10-11T10:38:35.434Z,18.87
2022-10-11T10:41:09.179Z,18.00
2022-10-11T10:43:38.222Z,22.47
2022-10-11T10:46:31.252Z,14.73
2022-10-11T10:49:51.953Z,17.17
2022-10-11T10:52:42.049Z,21.43
2022-10-11T10:55:35.450Z,19.23
2022-10-11T10:58:07.281Z,17.17
2022-10-11T11:00:49.291Z,18.53
2022-10-11T11:03:43.696Z,19.43
2022-10-11T11:06:43.500Z,19.37
2022-10-11T11:09:45.892Z,21.73
2022-10-11T11:12:42.752Z,21.60
2022-10-11T11:15:38.140Z,18.10
2022-10-11T11:18:25.735Z,17.87
2022-10-11T11:20:58.923Z,18.80
2022-10-11T11:23:37.642Z,17.10
2022-10-11T11:26:15.049Z,16.93
2022-10-11T11:29:08.540Z,19.40
2022-10-11T11:32:03.058Z,18.43
2022-10-11T11:34:37.786Z,14.77
2022-10-11T11:37:14.911Z,17.90
2022-10-11T11:40:10.884Z,14.53
2022-10-11T11:42:45.840Z,14.83
2022-10-11T11:45:27.881Z,15.30
2022-10-11T11:48:05.356Z,18.53
2022-10-11T11:50:39.980Z,13.13
2022-10-11T11:53:21.727Z,17.87
2022-10-11T11:56:01.258Z,17.10
2022-10-11T11:58:39.670Z,16.30
2022-10-11T12:01:30.268Z,15.73
2022-10-11T12:04:21.995Z,17.30
2022-10-11T12:07:16.409Z,17.27
2022-10-11T12:09:50.409Z,16.83
2022-10-11T12:12:33.210Z,20.23
2022-10-11T12:15:08.700Z,19.33
2022-10-11T12:17:55.805Z,14.63
2022-10-11T12:20:27.063Z,15.43
2022-10-11T12:22:53.587Z,15.40
2022-10-11T12:25:23.298Z,17.60
2022-10-11T12:27:51.087Z,14.35
2022-10-11T12:30:42.395Z,18.97
2022-10-11T12:33:21.314Z,14.27
2022-10-11T12:36:29.602Z,13.07
2022-10-11T12:39:18.106Z,16.60
2022-10-11T12:41:47.843Z,18.87
2022-10-11T12:44:27.963Z,14.83
2022-10-11T12:46:54.459Z,18.47
2022-10-11T12:49:27.061Z,14.33
2022-10-11T12:52:00.828Z,14.70
2022-10-11T12:54:38.991Z,13.00
2022-10-11T12:57:11.834Z,13.37
2022-10-11T12:59:44.226Z,17.07
2022-10-11T13:02:30.487Z,12.57
2022-10-11T13:05:18.137Z,13.10
2022-10-11T13:07:45.166Z,16.45
2022-10-11T13:10:28.147Z,14.33
2022-10-11T13:12:56.402Z,13.00
2022-10-11T13:15:24.342Z,14.40
2022-10-11T13:17:54.085Z,16.67
2022-10-11T13:20:25.229Z,17.20
2022-10-11T13:22:54.374Z,16.00
2022-10-11T13:25:26.897Z,15.30
2022-10-11T13:27:55.718Z,11.93
2022-10-11T13:30:32.304Z,11.40
2022-10-11T13:33:08.452Z,12.63
2022-10-11T13:35:37.168Z,13.50
2022-10-11T13:38:07.155Z,14.40
2022-10-11T13:40:34.085Z,15.93
2022-10-11T13:43:01.268Z,13.63
2022-10-11T13:45:30.626Z,14.57
2022-10-11T13:47:57.347Z,18.13
2022-10-11T13:50:34.367Z,16.47
2022-10-11T13:53:23.765Z,14.63
2022-10-11T13:55:57.225Z,15.67
2022-10-11T13:58:32.010Z,18.27
2022-10-11T14:01:16.613Z,11.00
2022-10-11T14:03:47.336Z,11.57
2022-10-11T14:06:13.928Z,12.80
2022-10-11T14:08:47.118Z,12.60
2022-10-11T14:11:14.980Z,12.17
2022-10-11T14:13:47.375Z,16.50
2022-10-11T14:16:20.152Z,15.07
2022-10-11T14:18:49.728Z,18.30
2022-10-11T14:21:19.283Z,14.57
2022-10-11T14:23:59.449Z,13.23
2022-10-11T14:26:30.748Z,14.20
2022-10-11T14:29:00.444Z,18.03
2022-10-11T14:31:27.640Z,18.27
2022-10-11T14:33:55.279Z,20.63
2022-10-11T14:36:22.924Z,14.10
2022-10-11T14:38:53.219Z,19.70
2022-10-11T14:41:19.776Z,17.90
2022-10-11T14:43:46.392Z,14.00
2022-10-11T14:46:24.164Z,14.97
2022-10-11T14:48:56.576Z,16.30
2022-10-11T14:51:28.862Z,12.93
2022-10-11T14:53:55.496Z,19.13
2022-10-11T14:56:22.107Z,15.48
2022-10-11T14:58:49.091Z,16.20
2022-10-11T15:01:16.795Z,20.50
2022-10-11T15:03:43.564Z,17.17
2022-10-11T15:06:22.765Z,15.17
2022-10-11T15:08:49.524Z,13.20
2022-10-11T15:11:19.390Z,14.10
2022-10-11T15:13:46.524Z,17.27
2022-10-11T15:16:14.894Z,15.23
2022-10-11T15:18:42.296Z,19.30
2022-10-11T15:21:13.526Z,17.47
2022-10-11T15:23:40.238Z,15.60
2022-10-11T15:26:07.106Z,13.50
2022-10-11T15:28:34.193Z,17.23
2022-10-11T15:31:00.920Z,17.43
2022-10-11T15:33:27.579Z,17.20
2022-10-11T15:35:54.291Z,15.40
2022-10-11T15:38:23.880Z,16.13
2022-10-11T15:40:52.232Z,16.73
2022-10-11T15:43:24.258Z,13.87
2022-10-11T15:45:51.763Z,13.07
2022-10-11T15:48:20.928Z,20.50
2022-10-11T15:50:49.165Z,17.80
2022-10-11T15:53:21.640Z,15.50
2022-10-11T15:55:50.779Z,14.23
2022-10-11T15:58:26.401Z,18.03
2022-10-11T16:00:55.622Z,15.63
2022-10-11T16:03:25.142Z,17.63
2022-10-11T16:05:53.134Z,19.00
2022-10-11T16:08:20.160Z,17.50
2022-10-11T16:10:47.074Z,14.82
2022-10-11T16:13:14.198Z,15.17
2022-10-11T16:15:42.642Z,14.40
2022-10-11T16:18:13.037Z,17.87
2022-10-11T16:20:40.970Z,20.00
2022-10-11T16:23:07.887Z,14.57
2022-10-11T16:25:34.512Z,14.53
2022-10-11T16:28:02.386Z,21.30
2022-10-11T16:30:29.444Z,14.47
2022-10-11T16:32:56.906Z,15.13
2022-10-11T16:35:24.964Z,19.50
2022-10-11T16:37:53.915Z,17.23
2022-10-11T16:40:21.950Z,19.03
2022-10-11T16:42:48.990Z,19.57
2022-10-11T16:45:16.446Z,18.27
2022-10-11T16:47:43.875Z,19.53
2022-10-11T16:50:11.397Z,18.67
2022-10-11T16:52:37.974Z,19.10
2022-10-11T16:55:05.053Z,17.37
2022-10-11T16:57:31.777Z,19.77
2022-10-11T16:59:58.338Z,24.40
2022-10-11T17:02:31.326Z,17.33
2022-10-11T17:04:59.258Z,21.80
2022-10-11T17:07:26.438Z,17.60
2022-10-11T17:09:53.031Z,18.63
2022-10-11T17:12:23.225Z,21.03
2022-10-11T17:14:50.547Z,16.77
2022-10-11T17:17:18.347Z,19.33
2022-10-11T17:19:45.741Z,18.40
2022-10-11T17:22:14.932Z,18.80
2022-10-11T17:24:41.664Z,19.27
2022-10-11T17:27:08.274Z,21.80
2022-10-11T17:29:35.151Z,21.27
2022-10-11T17:32:02.125Z,22.50
2022-10-11T17:34:29.528Z,21.27
2022-10-11T17:36:56.092Z,19.43
2022-10-11T17:39:23.791Z,17.23
2022-10-11T17:41:51.049Z,21.73
2022-10-11T17:44:18.364Z,17.73
2022-10-11T17:46:45.704Z,19.23
2022-10-11T17:49:12.718Z,20.87
2022-10-11T17:51:40.017Z,18.63
2022-10-11T17:54:12.100Z,22.57
2022-10-11T17:56:39.947Z,22.05
2022-10-11T17:59:06.947Z,22.50
2022-10-11T18:01:33.655Z,24.37
2022-10-11T18:04:03.391Z,21.50
2022-10-11T18:06:33.030Z,26.13
2022-10-11T18:09:01.806Z,26.90
2022-10-11T18:11:29.141Z,32.20
2022-10-11T18:13:56.237Z,27.67
2022-10-11T18:16:26.804Z,23.70
2022-10-11T18:18:54.647Z,21.73
2022-10-11T18:21:21.237Z,22.07
2022-10-11T18:23:47.869Z,19.57
2022-10-11T18:26:17.150Z,22.07
2022-10-11T18:28:44.357Z,20.20
2022-10-11T18:31:15.268Z,19.87
2022-10-11T18:33:42.991Z,19.07
2022-10-11T18:36:13.172Z,27.83
2022-10-11T18:38:43.866Z,23.20
2022-10-11T18:41:11.531Z,27.05
2022-10-11T18:43:38.434Z,22.50
2022-10-11T18:46:13.631Z,25.90
2022-10-11T18:48:44.466Z,22.03
2022-10-11T18:51:14.890Z,22.53
2022-10-11T18:53:42.168Z,21.20
2022-10-11T18:56:10.430Z,23.53
2022-10-11T18:58:38.175Z,22.97
2022-10-11T19:01:10.254Z,24.07
2022-10-11T19:03:37.219Z,18.57
2022-10-11T19:06:12.644Z,17.27
2022-10-11T19:08:39.171Z,17.90
2022-10-11T19:11:09.992Z,22.90
2022-10-11T19:13:36.885Z,26.50
2022-10-11T19:16:11.400Z,20.23
2022-10-11T19:18:41.820Z,20.80
2022-10-11T19:21:12.588Z,22.70
2022-10-11T19:23:41.767Z,25.23
2022-10-11T19:26:14.299Z,21.63
2022-10-11T19:28:41.385Z,18.90
2022-10-11T19:31:10.039Z,23.57
2022-10-11T19:33:37.076Z,21.20
2022-10-11T19:36:05.618Z,21.30
2022-10-11T19:38:34.139Z,22.07
2022-10-11T19:41:02.059Z,24.60
2022-10-11T19:43:28.608Z,19.57
2022-10-11T19:46:03.276Z,20.77
2022-10-11T19:48:30.370Z,20.93
2022-10-11T19:51:08.291Z,20.50
2022-10-11T19:53:35.719Z,22.73
2022-10-11T19:56:03.813Z,21.10
2022-10-11T19:58:30.559Z,21.67
2022-10-11T20:01:01.755Z,20.40
2022-10-11T20:03:28.334Z,25.80
2022-10-11T20:05:54.965Z,20.20
2022-10-11T20:08:21.674Z,21.60
2022-10-11T20:10:48.236Z,21.20
2022-10-11T20:13:14.780Z,29.20
2022-10-11T20:15:41.349Z,18.67
2022-10-11T20:18:08.196Z,22.30
2022-10-11T20:20:34.768Z,21.03
2022-10-11T20:23:01.372Z,20.07
2022-10-11T20:25:27.920Z,20.70
2022-10-11T20:27:54.476Z,28.00
2022-10-11T20:30:21.093Z,22.73
2022-10-11T20:32:47.619Z,22.27
2022-10-11T20:35:14.270Z,20.17
2022-10-11T20:37:40.795Z,22.87
2022-10-11T20:40:07.931Z,21.77
2022-10-11T20:42:34.485Z,23.90
2022-10-11T20:45:01.231Z,22.10
2022-10-11T20:47:27.779Z,18.23
2022-10-11T20:49:54.320Z,21.77
2022-10-11T20:52:20.862Z,20.37
2022-10-11T20:54:47.408Z,19.33
2022-10-11T20:57:13.992Z,18.87
2022-10-11T20:59:40.539Z,25.10
2022-10-11T21:02:07.264Z,19.80
2022-10-11T21:04:33.829Z,21.10
2022-10-11T21:07:00.393Z,23.17
2022-10-11T21:09:26.982Z,24.05
2022-10-11T21:11:53.507Z,18.80
2022-10-11T21:14:20.082Z,22.27
2022-10-11T21:16:46.693Z,21.33
2022-10-11T21:19:14.997Z,21.43
2022-10-11T21:21:42.630Z,22.40
2022-10-11T21:24:09.184Z,24.30
2022-10-11T21:26:35.769Z,21.93
2022-10-11T21:29:03.965Z,21.57
2022-10-11T21:31:34.048Z,19.57
2022-10-11T21:34:01.846Z,20.83
2022-10-11T21:36:28.454Z,18.43
2022-10-11T21:38:54.993Z,22.13
2022-10-11T21:41:25.432Z,21.73
2022-10-11T21:43:52.527Z,22.60
2022-10-11T21:46:29.283Z,21.50
2022-10-11T21:49:03.504Z,20.07
2022-10-11T21:51:31.102Z,20.47
2022-10-11T21:54:00.214Z,20.50
2022-10-11T21:56:27.758Z,22.07
2022-10-11T21:58:54.435Z,21.93
2022-10-11T22:01:21.721Z,22.80
2022-10-11T22:03:49.171Z,22.63
2022-10-11T22:06:16.329Z,24.27
2022-10-11T22:08:42.910Z,26.03
2022-10-11T22:11:10.105Z,21.63
2022-10-11T22:13:36.854Z,22.93
2022-10-11T22:16:05.701Z,25.87
2022-10-11T22:18:33.814Z,21.90
2022-10-11T22:21:21.283Z,18.80
2022-10-11T22:23:50.882Z,24.20
2022-10-11T22:26:23.410Z,23.58
2022-10-11T22:28:50.112Z,22.40
2022-10-11T22:31:18.466Z,19.50
2022-10-11T22:36:18.836Z,24.13
2022-10-11T22:38:46.244Z,23.73
2022-10-11T22:41:13.132Z,24.37
2022-10-11T22:43:40.128Z,25.70
2022-10-11T22:46:07.214Z,23.97
2022-10-11T22:48:33.892Z,21.77
2022-10-11T22:51:01.015Z,24.93
2022-10-11T22:53:28.131Z,20.33
2022-10-11T22:55:54.759Z,23.67
2022-10-11T22:58:21.298Z,29.13
2022-10-11T23:00:47.877Z,25.47
2022-10-11T23:03:15.925Z,24.13
2022-10-11T23:05:42.894Z,26.52
2022-10-11T23:08:10.267Z,27.73
2022-10-11T23:10:40.432Z,24.03
2022-10-11T23:13:07.563Z,19.90
2022-10-11T23:15:34.130Z,23.53
2022-10-11T23:18:00.683Z,25.60
2022-10-11T23:20:27.314Z,24.37
2022-10-11T23:22:53.848Z,23.63
2022-10-11T23:25:20.399Z,30.87
2022-10-11T23:27:46.978Z,25.23
2022-10-11T23:30:13.736Z,26.10
2022-10-11T23:32:40.273Z,22.83
2022-10-11T23:35:07.170Z,21.10
2022-10-11T23:37:33.774Z,21.10
2022-10-11T23:40:00.322Z,22.87
2022-10-11T23:42:26.840Z,22.17
2022-10-11T23:44:54.110Z,28.87
2022-10-11T23:47:20.648Z,27.23
2022-10-11T23:49:47.192Z,25.30
2022-10-11T23:52:13.768Z,23.17
2022-10-11T23:54:40.313Z,25.40
2022-10-11T23:57:06.860Z,20.30
2022-10-11T23:59:33.397Z,22.23
